Oklahoma City, OK (73112)

8:09 PM CST on December 07, 2016 (GMT -0600)
North Oklahoma City | | Change Station

Elev 1220 ft 35.51 °N, 97.57 °W | Updated 46 seconds ago

Partly Cloudy
Partly Cloudy
31.2 °F
Feels Like 31 °F
N
2.0
Wind Variable Wind from West

Today
High -- | Low -- °F
--% Chance of Precip.
Yesterday
High -- | Low -- °F
Precip. -- in
Pressure 30.42 in
Visibility 10.0 miles
Clouds Few 7000 ft
Windchill 31 °F
Dew Point 21 °F
Humidity 65%
Rainfall 0.00 in
Snow Depth Not available.
7:26 AM 5:17 PM
First Quarter, 58% visible
METAR KPWA 080153Z 03013KT 10SM FEW070 01/M07 A3039 RMK AO2 SLP300 T00061067
Pressure 30.42 in
Visibility 10.0 miles
Clouds Few 7000 ft
Windchill 31 °F
Dew Point 21 °F
Humidity 65%
Rainfall 0.00 in
Snow Depth Not available.
7:26 AM 5:17 PM
First Quarter, 58% visible
METAR KPWA 080153Z 03013KT 10SM FEW070 01/M07 A3039 RMK AO2 SLP300 T00061067

10-Day Weather Forecast

Almanac

Astronomy

Dec. 07, 2016 Rise Set
Actual Time
Civil Twilight
Nautical Twilight
Astronomical Twilight
Moon
Length of Visible Light
Length of Day
Tomorrow will be .
, % of the Moon is Illuminated

Today's Extremes

State Highs State Lows

Community

WunderPhotos

Upload Photos

1,956,259 photos uploaded!

WunderBlog® & News

Nearby

Air Quality

  Air Quality AQ Index Pollutant
Not available.

Snow Depth

Station Depth Elevation

Earthquake Activity

City Distance Mag. Time & Date
Minimum magnitude displayed is 2.5.

Coastal Water Temperatures

Place Temperature

Stations

Nearby Weather Stations

Station Location Temp. Windchill Dew Point Humidity Wind Precip. Elev Updated Type
                   

Watches & Warnings

There are currently no watches in effect.